Armstrong, Missouri
Current Conditions -  °F | °C
As of 8:55 PM on Wednesday 26 Nov 2014 (Local Time) from KVER Reporting Station
Overcast Overcast  
Wind Chill: 21°   Ceiling: 900
Heat Index: 33°   Visibility: 10mi
Dew Point: 30°   Wind: 18mph
Humidity: 88%   Direction: 310°NW
Pressure: 30.21"   Gusts: 24mph
Location:  39.27°N, 92.7°W
Report Text: KVER 270255Z AUTO 31016G21KT 10SM OVC009 00/M01 A3021 RMK AO2 T00041013
Loading
Personal Weather Stations






























Interactive Weather Map New forecast layout! Learn more

10-Day Weather Forecast

Advertisements
Track Severe Weather on mobile